sensor_id;sensor_type;location;lat;lon;timestamp;P1;durP1;ratioP1;P2;durP2;ratioP2
69534;SDS011;56754;51.568;5.048;2023-11-19T00:01:09;7.23;;;2.73;;
69534;SDS011;56754;51.568;5.048;2023-11-19T00:03:34;7.37;;;2.80;;
69534;SDS011;56754;51.568;5.048;2023-11-19T00:05:59;6.93;;;2.43;;
69534;SDS011;56754;51.568;5.048;2023-11-19T00:08:25;8.87;;;2.60;;
69534;SDS011;56754;51.568;5.048;2023-11-19T00:10:50;7.37;;;2.40;;
69534;SDS011;56754;51.568;5.048;2023-11-19T00:13:15;6.30;;;1.90;;
69534;SDS011;56754;51.568;5.048;2023-11-19T00:15:41;5.77;;;2.20;;
69534;SDS011;56754;51.568;5.048;2023-11-19T00:18:06;6.32;;;2.30;;
69534;SDS011;56754;51.568;5.048;2023-11-19T00:20:31;7.63;;;2.47;;
69534;SDS011;56754;51.568;5.048;2023-11-19T00:22:56;8.17;;;2.40;;
69534;SDS011;56754;51.568;5.048;2023-11-19T00:25:22;11.77;;;3.20;;
69534;SDS011;56754;51.568;5.048;2023-11-19T00:27:47;9.60;;;2.43;;
69534;SDS011;56754;51.568;5.048;2023-11-19T00:30:13;9.27;;;2.43;;
69534;SDS011;56754;51.568;5.048;2023-11-19T00:32:38;9.50;;;2.38;;
69534;SDS011;56754;51.568;5.048;2023-11-19T00:35:04;11.67;;;2.70;;
69534;SDS011;56754;51.568;5.048;2023-11-19T00:37:30;6.63;;;1.70;;
69534;SDS011;56754;51.568;5.048;2023-11-19T00:39:55;7.37;;;2.07;;
69534;SDS011;56754;51.568;5.048;2023-11-19T00:42:21;10.53;;;1.90;;
69534;SDS011;56754;51.568;5.048;2023-11-19T00:44:46;7.90;;;1.80;;
69534;SDS011;56754;51.568;5.048;2023-11-19T00:47:11;8.50;;;1.93;;
69534;SDS011;56754;51.568;5.048;2023-11-19T00:49:36;7.85;;;1.98;;
69534;SDS011;56754;51.568;5.048;2023-11-19T00:52:02;12.63;;;2.43;;
69534;SDS011;56754;51.568;5.048;2023-11-19T00:54:27;7.47;;;1.93;;
69534;SDS011;56754;51.568;5.048;2023-11-19T00:56:53;9.13;;;2.10;;
69534;SDS011;56754;51.568;5.048;2023-11-19T00:59:18;12.60;;;2.00;;
69534;SDS011;56754;51.568;5.048;2023-11-19T01:01:44;10.10;;;2.10;;
69534;SDS011;56754;51.568;5.048;2023-11-19T01:04:10;7.20;;;1.67;;
69534;SDS011;56754;51.568;5.048;2023-11-19T01:06:35;5.47;;;1.40;;
69534;SDS011;56754;51.568;5.048;2023-11-19T01:09:00;8.90;;;1.80;;
69534;SDS011;56754;51.568;5.048;2023-11-19T01:11:25;13.30;;;2.30;;
69534;SDS011;56754;51.568;5.048;2023-11-19T01:13:51;5.53;;;1.43;;
69534;SDS011;56754;51.568;5.048;2023-11-19T01:16:17;9.45;;;1.65;;
69534;SDS011;56754;51.568;5.048;2023-11-19T01:18:43;12.70;;;2.13;;
69534;SDS011;56754;51.568;5.048;2023-11-19T01:21:08;8.40;;;1.63;;
69534;SDS011;56754;51.568;5.048;2023-11-19T01:23:34;9.40;;;1.70;;
69534;SDS011;56754;51.568;5.048;2023-11-19T01:26:00;13.25;;;2.25;;
69534;SDS011;56754;51.568;5.048;2023-11-19T01:28:25;11.40;;;2.00;;
69534;SDS011;56754;51.568;5.048;2023-11-19T01:30:51;13.70;;;2.20;;
69534;SDS011;56754;51.568;5.048;2023-11-19T01:33:16;12.07;;;2.53;;
69534;SDS011;56754;51.568;5.048;2023-11-19T01:35:41;11.43;;;2.72;;
69534;SDS011;56754;51.568;5.048;2023-11-19T01:38:07;16.80;;;2.37;;
69534;SDS011;56754;51.568;5.048;2023-11-19T01:40:34;15.18;;;2.17;;
69534;SDS011;56754;51.568;5.048;2023-11-19T01:42:59;10.23;;;2.10;;
69534;SDS011;56754;51.568;5.048;2023-11-19T01:45:28;10.70;;;2.10;;
69534;SDS011;56754;51.568;5.048;2023-11-19T01:47:55;11.45;;;2.00;;
69534;SDS011;56754;51.568;5.048;2023-11-19T01:50:21;11.55;;;2.35;;
69534;SDS011;56754;51.568;5.048;2023-11-19T01:52:48;14.03;;;2.10;;
69534;SDS011;56754;51.568;5.048;2023-11-19T01:55:13;15.00;;;2.17;;
69534;SDS011;56754;51.568;5.048;2023-11-19T01:57:39;12.63;;;2.00;;
69534;SDS011;56754;51.568;5.048;2023-11-19T02:00:05;13.13;;;2.20;;
69534;SDS011;56754;51.568;5.048;2023-11-19T02:02:31;14.20;;;2.33;;
69534;SDS011;56754;51.568;5.048;2023-11-19T02:04:56;13.52;;;1.90;;
69534;SDS011;56754;51.568;5.048;2023-11-19T02:07:22;12.50;;;2.33;;
69534;SDS011;56754;51.568;5.048;2023-11-19T02:09:49;12.70;;;2.22;;
69534;SDS011;56754;51.568;5.048;2023-11-19T02:12:15;15.27;;;2.37;;
69534;SDS011;56754;51.568;5.048;2023-11-19T02:14:40;18.03;;;3.17;;
69534;SDS011;56754;51.568;5.048;2023-11-19T02:17:05;11.23;;;2.10;;
69534;SDS011;56754;51.568;5.048;2023-11-19T02:19:30;16.80;;;2.40;;
69534;SDS011;56754;51.568;5.048;2023-11-19T02:21:56;17.63;;;3.07;;
69534;SDS011;56754;51.568;5.048;2023-11-19T02:24:21;19.20;;;2.47;;
69534;SDS011;56754;51.568;5.048;2023-11-19T02:27:06;17.52;;;2.70;;
69534;SDS011;56754;51.568;5.048;2023-11-19T02:29:35;14.57;;;2.30;;
69534;SDS011;56754;51.568;5.048;2023-11-19T02:32:00;16.27;;;2.70;;
69534;SDS011;56754;51.568;5.048;2023-11-19T02:34:27;15.20;;;2.17;;
69534;SDS011;56754;51.568;5.048;2023-11-19T02:36:52;16.83;;;2.40;;
69534;SDS011;56754;51.568;5.048;2023-11-19T02:39:18;11.87;;;1.73;;
69534;SDS011;56754;51.568;5.048;2023-11-19T02:41:43;21.93;;;2.80;;
69534;SDS011;56754;51.568;5.048;2023-11-19T02:44:08;16.33;;;2.40;;
69534;SDS011;56754;51.568;5.048;2023-11-19T02:46:34;14.13;;;2.47;;
69534;SDS011;56754;51.568;5.048;2023-11-19T02:48:59;13.10;;;2.10;;
69534;SDS011;56754;51.568;5.048;2023-11-19T02:51:24;20.07;;;2.60;;
69534;SDS011;56754;51.568;5.048;2023-11-19T02:53:50;14.83;;;2.23;;
69534;SDS011;56754;51.568;5.048;2023-11-19T02:56:15;14.23;;;2.40;;
69534;SDS011;56754;51.568;5.048;2023-11-19T02:58:42;17.33;;;2.43;;
69534;SDS011;56754;51.568;5.048;2023-11-19T03:01:08;21.10;;;3.03;;
69534;SDS011;56754;51.568;5.048;2023-11-19T03:03:33;18.13;;;2.63;;
69534;SDS011;56754;51.568;5.048;2023-11-19T03:05:58;18.27;;;2.70;;
69534;SDS011;56754;51.568;5.048;2023-11-19T03:08:24;17.60;;;2.43;;
69534;SDS011;56754;51.568;5.048;2023-11-19T03:10:49;19.93;;;2.33;;
69534;SDS011;56754;51.568;5.048;2023-11-19T03:13:14;18.73;;;2.43;;
69534;SDS011;56754;51.568;5.048;2023-11-19T03:15:40;20.13;;;2.43;;
69534;SDS011;56754;51.568;5.048;2023-11-19T03:18:06;18.92;;;2.80;;
69534;SDS011;56754;51.568;5.048;2023-11-19T03:20:31;18.63;;;2.43;;
69534;SDS011;56754;51.568;5.048;2023-11-19T03:22:57;19.15;;;2.55;;
69534;SDS011;56754;51.568;5.048;2023-11-19T03:25:22;12.67;;;2.43;;
69534;SDS011;56754;51.568;5.048;2023-11-19T03:27:49;16.87;;;2.57;;
69534;SDS011;56754;51.568;5.048;2023-11-19T03:30:14;16.00;;;2.20;;
69534;SDS011;56754;51.568;5.048;2023-11-19T03:32:40;25.73;;;3.40;;
69534;SDS011;56754;51.568;5.048;2023-11-19T03:35:05;16.87;;;2.57;;
69534;SDS011;56754;51.568;5.048;2023-11-19T03:37:31;23.57;;;2.93;;
69534;SDS011;56754;51.568;5.048;2023-11-19T03:39:56;25.98;;;3.08;;
69534;SDS011;56754;51.568;5.048;2023-11-19T03:42:22;19.97;;;2.33;;
69534;SDS011;56754;51.568;5.048;2023-11-19T03:44:47;18.53;;;2.53;;
69534;SDS011;56754;51.568;5.048;2023-11-19T03:47:12;17.57;;;3.23;;
69534;SDS011;56754;51.568;5.048;2023-11-19T03:49:37;22.60;;;3.37;;
69534;SDS011;56754;51.568;5.048;2023-11-19T03:52:03;12.40;;;2.33;;
69534;SDS011;56754;51.568;5.048;2023-11-19T03:54:28;24.58;;;2.90;;
69534;SDS011;56754;51.568;5.048;2023-11-19T03:56:54;19.50;;;2.63;;
69534;SDS011;56754;51.568;5.048;2023-11-19T03:59:19;15.73;;;2.20;;
69534;SDS011;56754;51.568;5.048;2023-11-19T04:01:44;12.93;;;2.17;;
69534;SDS011;56754;51.568;5.048;2023-11-19T04:04:09;9.27;;;1.73;;
69534;SDS011;56754;51.568;5.048;2023-11-19T04:06:35;24.00;;;2.90;;
69534;SDS011;56754;51.568;5.048;2023-11-19T04:09:00;17.10;;;2.20;;
69534;SDS011;56754;51.568;5.048;2023-11-19T04:11:25;18.13;;;2.00;;
69534;SDS011;56754;51.568;5.048;2023-11-19T04:13:50;18.43;;;2.50;;
69534;SDS011;56754;51.568;5.048;2023-11-19T04:16:16;10.07;;;1.70;;
69534;SDS011;56754;51.568;5.048;2023-11-19T04:18:41;19.63;;;2.47;;
69534;SDS011;56754;51.568;5.048;2023-11-19T04:21:07;16.47;;;2.23;;
69534;SDS011;56754;51.568;5.048;2023-11-19T04:23:32;25.58;;;3.15;;
69534;SDS011;56754;51.568;5.048;2023-11-19T04:25:58;12.93;;;1.93;;
69534;SDS011;56754;51.568;5.048;2023-11-19T04:28:23;19.00;;;2.87;;
69534;SDS011;56754;51.568;5.048;2023-11-19T04:30:48;17.50;;;2.93;;
69534;SDS011;56754;51.568;5.048;2023-11-19T04:33:13;22.23;;;2.83;;
69534;SDS011;56754;51.568;5.048;2023-11-19T04:35:39;17.07;;;2.80;;
69534;SDS011;56754;51.568;5.048;2023-11-19T04:38:04;26.00;;;3.43;;
69534;SDS011;56754;51.568;5.048;2023-11-19T04:40:29;19.30;;;2.73;;
69534;SDS011;56754;51.568;5.048;2023-11-19T04:42:54;17.00;;;2.40;;
69534;SDS011;56754;51.568;5.048;2023-11-19T04:45:20;15.77;;;2.33;;
69534;SDS011;56754;51.568;5.048;2023-11-19T04:47:45;10.33;;;2.17;;
69534;SDS011;56754;51.568;5.048;2023-11-19T04:50:10;24.43;;;2.90;;
69534;SDS011;56754;51.568;5.048;2023-11-19T04:52:39;19.87;;;2.77;;
69534;SDS011;56754;51.568;5.048;2023-11-19T04:55:04;18.77;;;2.67;;
69534;SDS011;56754;51.568;5.048;2023-11-19T04:57:29;21.73;;;3.00;;
69534;SDS011;56754;51.568;5.048;2023-11-19T04:59:55;14.50;;;2.40;;
69534;SDS011;56754;51.568;5.048;2023-11-19T05:02:20;22.13;;;2.70;;
69534;SDS011;56754;51.568;5.048;2023-11-19T05:04:45;28.03;;;2.90;;
69534;SDS011;56754;51.568;5.048;2023-11-19T05:07:10;25.80;;;2.97;;
69534;SDS011;56754;51.568;5.048;2023-11-19T05:09:36;18.10;;;2.37;;
69534;SDS011;56754;51.568;5.048;2023-11-19T05:12:01;13.57;;;2.13;;
69534;SDS011;56754;51.568;5.048;2023-11-19T05:14:26;14.97;;;2.30;;
69534;SDS011;56754;51.568;5.048;2023-11-19T05:16:51;19.37;;;2.80;;
69534;SDS011;56754;51.568;5.048;2023-11-19T05:19:17;23.13;;;2.60;;
69534;SDS011;56754;51.568;5.048;2023-11-19T05:21:42;13.40;;;1.73;;
69534;SDS011;56754;51.568;5.048;2023-11-19T05:24:08;19.17;;;2.88;;
69534;SDS011;56754;51.568;5.048;2023-11-19T05:26:33;20.87;;;3.13;;
69534;SDS011;56754;51.568;5.048;2023-11-19T05:28:58;19.10;;;3.37;;
69534;SDS011;56754;51.568;5.048;2023-11-19T05:31:24;22.53;;;3.13;;
69534;SDS011;56754;51.568;5.048;2023-11-19T05:33:49;20.80;;;2.73;;
69534;SDS011;56754;51.568;5.048;2023-11-19T05:36:15;23.40;;;2.67;;
69534;SDS011;56754;51.568;5.048;2023-11-19T05:38:40;27.52;;;3.15;;
69534;SDS011;56754;51.568;5.048;2023-11-19T05:41:06;24.47;;;2.93;;
69534;SDS011;56754;51.568;5.048;2023-11-19T05:43:31;19.80;;;2.63;;
69534;SDS011;56754;51.568;5.048;2023-11-19T05:45:57;21.33;;;2.73;;
69534;SDS011;56754;51.568;5.048;2023-11-19T05:48:22;15.50;;;2.47;;
69534;SDS011;56754;51.568;5.048;2023-11-19T05:50:48;21.50;;;2.80;;
69534;SDS011;56754;51.568;5.048;2023-11-19T05:53:14;21.33;;;2.37;;
69534;SDS011;56754;51.568;5.048;2023-11-19T05:55:39;21.50;;;2.63;;
69534;SDS011;56754;51.568;5.048;2023-11-19T05:58:04;25.27;;;2.93;;
69534;SDS011;56754;51.568;5.048;2023-11-19T06:00:29;18.63;;;2.43;;
69534;SDS011;56754;51.568;5.048;2023-11-19T06:02:55;21.60;;;2.83;;
69534;SDS011;56754;51.568;5.048;2023-11-19T06:05:20;21.00;;;3.00;;
69534;SDS011;56754;51.568;5.048;2023-11-19T06:07:45;26.13;;;3.30;;
69534;SDS011;56754;51.568;5.048;2023-11-19T06:10:10;20.90;;;3.13;;
69534;SDS011;56754;51.568;5.048;2023-11-19T06:12:36;21.40;;;3.80;;
69534;SDS011;56754;51.568;5.048;2023-11-19T06:15:02;20.10;;;2.57;;
69534;SDS011;56754;51.568;5.048;2023-11-19T06:17:27;20.27;;;3.40;;
69534;SDS011;56754;51.568;5.048;2023-11-19T06:19:52;16.03;;;2.50;;
69534;SDS011;56754;51.568;5.048;2023-11-19T06:22:18;19.30;;;2.90;;
69534;SDS011;56754;51.568;5.048;2023-11-19T06:24:43;21.53;;;2.87;;
69534;SDS011;56754;51.568;5.048;2023-11-19T06:27:08;16.80;;;2.30;;
69534;SDS011;56754;51.568;5.048;2023-11-19T06:29:33;27.23;;;3.67;;
69534;SDS011;56754;51.568;5.048;2023-11-19T06:31:59;16.83;;;2.80;;
69534;SDS011;56754;51.568;5.048;2023-11-19T06:34:24;18.77;;;2.60;;
69534;SDS011;56754;51.568;5.048;2023-11-19T06:36:49;16.13;;;2.27;;
69534;SDS011;56754;51.568;5.048;2023-11-19T06:39:15;14.45;;;2.15;;
69534;SDS011;56754;51.568;5.048;2023-11-19T06:41:46;15.03;;;2.10;;
69534;SDS011;56754;51.568;5.048;2023-11-19T06:44:12;16.73;;;2.03;;
69534;SDS011;56754;51.568;5.048;2023-11-19T06:46:37;21.25;;;3.05;;
69534;SDS011;56754;51.568;5.048;2023-11-19T06:49:02;17.47;;;2.03;;
69534;SDS011;56754;51.568;5.048;2023-11-19T06:51:27;18.57;;;3.07;;
69534;SDS011;56754;51.568;5.048;2023-11-19T06:53:53;17.93;;;2.67;;
69534;SDS011;56754;51.568;5.048;2023-11-19T06:56:24;19.07;;;2.50;;
69534;SDS011;56754;51.568;5.048;2023-11-19T06:58:50;16.45;;;2.28;;
69534;SDS011;56754;51.568;5.048;2023-11-19T07:01:16;19.35;;;3.00;;
69534;SDS011;56754;51.568;5.048;2023-11-19T07:03:42;17.40;;;2.93;;
69534;SDS011;56754;51.568;5.048;2023-11-19T07:06:07;20.67;;;2.35;;
69534;SDS011;56754;51.568;5.048;2023-11-19T07:08:32;23.40;;;2.70;;
69534;SDS011;56754;51.568;5.048;2023-11-19T07:10:58;22.67;;;2.80;;
69534;SDS011;56754;51.568;5.048;2023-11-19T07:13:23;19.27;;;2.97;;
69534;SDS011;56754;51.568;5.048;2023-11-19T07:15:48;18.87;;;3.07;;
69534;SDS011;56754;51.568;5.048;2023-11-19T07:18:14;17.93;;;2.40;;
69534;SDS011;56754;51.568;5.048;2023-11-19T07:20:39;21.20;;;3.37;;
69534;SDS011;56754;51.568;5.048;2023-11-19T07:23:04;18.93;;;2.67;;
69534;SDS011;56754;51.568;5.048;2023-11-19T07:25:29;14.55;;;2.30;;
69534;SDS011;56754;51.568;5.048;2023-11-19T07:27:55;19.70;;;2.47;;
69534;SDS011;56754;51.568;5.048;2023-11-19T07:30:20;14.50;;;2.43;;
69534;SDS011;56754;51.568;5.048;2023-11-19T07:32:45;16.33;;;2.20;;
69534;SDS011;56754;51.568;5.048;2023-11-19T07:35:11;12.33;;;1.90;;
69534;SDS011;56754;51.568;5.048;2023-11-19T07:37:36;16.83;;;2.03;;
69534;SDS011;56754;51.568;5.048;2023-11-19T07:40:01;24.27;;;2.97;;
69534;SDS011;56754;51.568;5.048;2023-11-19T07:42:26;16.03;;;1.93;;
69534;SDS011;56754;51.568;5.048;2023-11-19T07:44:52;14.73;;;2.00;;
69534;SDS011;56754;51.568;5.048;2023-11-19T07:47:17;21.87;;;2.50;;
69534;SDS011;56754;51.568;5.048;2023-11-19T07:49:42;19.53;;;2.63;;
69534;SDS011;56754;51.568;5.048;2023-11-19T07:52:08;11.43;;;1.80;;
69534;SDS011;56754;51.568;5.048;2023-11-19T07:54:33;20.90;;;2.73;;
69534;SDS011;56754;51.568;5.048;2023-11-19T07:56:58;20.47;;;2.93;;
69534;SDS011;56754;51.568;5.048;2023-11-19T07:59:23;17.00;;;2.30;;
69534;SDS011;56754;51.568;5.048;2023-11-19T08:01:49;17.03;;;2.53;;
69534;SDS011;56754;51.568;5.048;2023-11-19T08:04:14;15.43;;;2.13;;
69534;SDS011;56754;51.568;5.048;2023-11-19T08:06:39;22.47;;;3.43;;
69534;SDS011;56754;51.568;5.048;2023-11-19T08:09:05;14.88;;;2.38;;
69534;SDS011;56754;51.568;5.048;2023-11-19T08:11:30;15.47;;;2.87;;
69534;SDS011;56754;51.568;5.048;2023-11-19T08:13:55;23.93;;;3.17;;
69534;SDS011;56754;51.568;5.048;2023-11-19T08:16:21;15.30;;;2.40;;
69534;SDS011;56754;51.568;5.048;2023-11-19T08:18:46;14.57;;;2.57;;
69534;SDS011;56754;51.568;5.048;2023-11-19T08:21:11;24.50;;;3.10;;
69534;SDS011;56754;51.568;5.048;2023-11-19T08:23:36;24.33;;;2.72;;
69534;SDS011;56754;51.568;5.048;2023-11-19T08:26:02;23.13;;;3.07;;
69534;SDS011;56754;51.568;5.048;2023-11-19T08:28:27;21.83;;;3.10;;
69534;SDS011;56754;51.568;5.048;2023-11-19T08:30:53;18.27;;;2.70;;
69534;SDS011;56754;51.568;5.048;2023-11-19T08:33:18;20.73;;;2.67;;
69534;SDS011;56754;51.568;5.048;2023-11-19T08:35:43;20.38;;;2.60;;
69534;SDS011;56754;51.568;5.048;2023-11-19T08:38:09;23.97;;;3.37;;
69534;SDS011;56754;51.568;5.048;2023-11-19T08:40:34;22.00;;;2.77;;
69534;SDS011;56754;51.568;5.048;2023-11-19T08:42:59;18.27;;;2.43;;
69534;SDS011;56754;51.568;5.048;2023-11-19T08:45:25;20.50;;;2.67;;
69534;SDS011;56754;51.568;5.048;2023-11-19T08:47:50;19.35;;;2.35;;
69534;SDS011;56754;51.568;5.048;2023-11-19T08:50:15;20.23;;;2.63;;
69534;SDS011;56754;51.568;5.048;2023-11-19T08:52:41;16.20;;;2.70;;
69534;SDS011;56754;51.568;5.048;2023-11-19T08:55:06;20.53;;;2.77;;
69534;SDS011;56754;51.568;5.048;2023-11-19T08:57:32;27.17;;;3.10;;
69534;SDS011;56754;51.568;5.048;2023-11-19T08:59:57;21.45;;;2.63;;
69534;SDS011;56754;51.568;5.048;2023-11-19T09:02:22;17.87;;;3.10;;
69534;SDS011;56754;51.568;5.048;2023-11-19T09:04:48;20.87;;;3.37;;
69534;SDS011;56754;51.568;5.048;2023-11-19T09:07:13;20.20;;;2.90;;
69534;SDS011;56754;51.568;5.048;2023-11-19T09:09:38;22.20;;;2.97;;
69534;SDS011;56754;51.568;5.048;2023-11-19T09:12:04;23.80;;;3.50;;
69534;SDS011;56754;51.568;5.048;2023-11-19T09:14:29;22.27;;;3.03;;
69534;SDS011;56754;51.568;5.048;2023-11-19T09:16:55;25.70;;;2.90;;
69534;SDS011;56754;51.568;5.048;2023-11-19T09:19:20;24.90;;;2.90;;
69534;SDS011;56754;51.568;5.048;2023-11-19T09:21:45;22.00;;;3.00;;
69534;SDS011;56754;51.568;5.048;2023-11-19T09:24:11;26.90;;;3.33;;
69534;SDS011;56754;51.568;5.048;2023-11-19T09:26:36;23.47;;;3.03;;
69534;SDS011;56754;51.568;5.048;2023-11-19T09:29:01;19.83;;;2.78;;
69534;SDS011;56754;51.568;5.048;2023-11-19T09:31:27;21.40;;;2.83;;
69534;SDS011;56754;51.568;5.048;2023-11-19T09:33:52;21.37;;;2.60;;
69534;SDS011;56754;51.568;5.048;2023-11-19T09:36:18;21.70;;;3.22;;
69534;SDS011;56754;51.568;5.048;2023-11-19T09:38:43;29.63;;;3.57;;
69534;SDS011;56754;51.568;5.048;2023-11-19T09:41:09;23.83;;;3.00;;
69534;SDS011;56754;51.568;5.048;2023-11-19T09:43:35;21.55;;;2.95;;
69534;SDS011;56754;51.568;5.048;2023-11-19T09:46:02;19.63;;;2.50;;
69534;SDS011;56754;51.568;5.048;2023-11-19T09:48:30;22.92;;;3.22;;
69534;SDS011;56754;51.568;5.048;2023-11-19T09:50:56;21.10;;;3.15;;
69534;SDS011;56754;51.568;5.048;2023-11-19T09:53:21;27.17;;;2.90;;
69534;SDS011;56754;51.568;5.048;2023-11-19T09:55:46;20.63;;;3.20;;
69534;SDS011;56754;51.568;5.048;2023-11-19T09:58:13;19.92;;;2.78;;
69534;SDS011;56754;51.568;5.048;2023-11-19T10:00:39;24.27;;;2.80;;
69534;SDS011;56754;51.568;5.048;2023-11-19T10:03:05;22.47;;;3.13;;
69534;SDS011;56754;51.568;5.048;2023-11-19T10:05:33;21.25;;;3.22;;
69534;SDS011;56754;51.568;5.048;2023-11-19T10:07:59;19.90;;;2.73;;
69534;SDS011;56754;51.568;5.048;2023-11-19T10:10:24;25.43;;;3.37;;
69534;SDS011;56754;51.568;5.048;2023-11-19T10:12:52;20.05;;;3.03;;
69534;SDS011;56754;51.568;5.048;2023-11-19T10:15:20;23.73;;;3.30;;
69534;SDS011;56754;51.568;5.048;2023-11-19T10:17:46;21.92;;;3.00;;
69534;SDS011;56754;51.568;5.048;2023-11-19T10:20:11;28.57;;;3.53;;
69534;SDS011;56754;51.568;5.048;2023-11-19T10:22:37;24.47;;;3.70;;
69534;SDS011;56754;51.568;5.048;2023-11-19T10:25:02;26.17;;;3.33;;
69534;SDS011;56754;51.568;5.048;2023-11-19T10:27:28;24.10;;;3.83;;
69534;SDS011;56754;51.568;5.048;2023-11-19T10:29:53;21.83;;;2.90;;
69534;SDS011;56754;51.568;5.048;2023-11-19T10:32:18;17.93;;;2.70;;
69534;SDS011;56754;51.568;5.048;2023-11-19T10:34:43;20.90;;;2.73;;
69534;SDS011;56754;51.568;5.048;2023-11-19T10:37:09;24.70;;;3.10;;
69534;SDS011;56754;51.568;5.048;2023-11-19T10:39:52;20.25;;;2.97;;
69534;SDS011;56754;51.568;5.048;2023-11-19T10:42:18;19.35;;;2.60;;
69534;SDS011;56754;51.568;5.048;2023-11-19T10:44:43;23.60;;;3.13;;
69534;SDS011;56754;51.568;5.048;2023-11-19T10:47:08;17.50;;;2.27;;
69534;SDS011;56754;51.568;5.048;2023-11-19T10:49:36;28.90;;;4.10;;
69534;SDS011;56754;51.568;5.048;2023-11-19T10:52:02;23.53;;;3.67;;
69534;SDS011;56754;51.568;5.048;2023-11-19T10:54:30;18.30;;;2.65;;
69534;SDS011;56754;51.568;5.048;2023-11-19T10:56:58;22.83;;;3.17;;
69534;SDS011;56754;51.568;5.048;2023-11-19T10:59:25;19.85;;;2.88;;
69534;SDS011;56754;51.568;5.048;2023-11-19T11:01:54;18.10;;;2.30;;
69534;SDS011;56754;51.568;5.048;2023-11-19T11:04:24;18.73;;;2.70;;
69534;SDS011;56754;51.568;5.048;2023-11-19T11:06:51;20.60;;;2.78;;
69534;SDS011;56754;51.568;5.048;2023-11-19T11:09:16;23.85;;;2.97;;
69534;SDS011;56754;51.568;5.048;2023-11-19T11:11:45;22.77;;;3.10;;
69534;SDS011;56754;51.568;5.048;2023-11-19T11:14:12;19.85;;;3.35;;
69534;SDS011;56754;51.568;5.048;2023-11-19T11:16:38;18.75;;;3.00;;
69534;SDS011;56754;51.568;5.048;2023-11-19T11:19:08;17.10;;;2.65;;
69534;SDS011;56754;51.568;5.048;2023-11-19T11:21:34;21.60;;;2.77;;
69534;SDS011;56754;51.568;5.048;2023-11-19T11:38:07;16.42;;;2.30;;
69534;SDS011;56754;51.568;5.048;2023-11-19T11:40:33;17.52;;;2.25;;
69534;SDS011;56754;51.568;5.048;2023-11-19T11:42:59;15.77;;;2.60;;
69534;SDS011;56754;51.568;5.048;2023-11-19T11:45:37;20.63;;;2.77;;
69534;SDS011;56754;51.568;5.048;2023-11-19T11:48:10;16.25;;;2.50;;
69534;SDS011;56754;51.568;5.048;2023-11-19T11:50:47;13.50;;;2.33;;
69534;SDS011;56754;51.568;5.048;2023-11-19T11:53:17;15.85;;;2.70;;
69534;SDS011;56754;51.568;5.048;2023-11-19T11:58:18;16.08;;;2.50;;
69534;SDS011;56754;51.568;5.048;2023-11-19T12:00:51;12.50;;;2.30;;
69534;SDS011;56754;51.568;5.048;2023-11-19T12:03:17;20.17;;;2.90;;
69534;SDS011;56754;51.568;5.048;2023-11-19T12:05:45;20.33;;;2.58;;
69534;SDS011;56754;51.568;5.048;2023-11-19T12:08:11;15.30;;;2.20;;
69534;SDS011;56754;51.568;5.048;2023-11-19T12:10:43;12.60;;;1.83;;
69534;SDS011;56754;51.568;5.048;2023-11-19T12:13:11;20.60;;;2.47;;
69534;SDS011;56754;51.568;5.048;2023-11-19T12:18:24;16.08;;;1.92;;
69534;SDS011;56754;51.568;5.048;2023-11-19T12:20:51;14.13;;;2.33;;
69534;SDS011;56754;51.568;5.048;2023-11-19T12:23:16;16.70;;;2.20;;
69534;SDS011;56754;51.568;5.048;2023-11-19T12:25:42;20.80;;;2.37;;
69534;SDS011;56754;51.568;5.048;2023-11-19T12:28:11;15.50;;;1.90;;
69534;SDS011;56754;51.568;5.048;2023-11-19T12:30:37;21.67;;;2.85;;
69534;SDS011;56754;51.568;5.048;2023-11-19T12:33:07;17.67;;;2.00;;
69534;SDS011;56754;51.568;5.048;2023-11-19T12:35:33;12.53;;;2.20;;
69534;SDS011;56754;51.568;5.048;2023-11-19T12:37:58;15.97;;;2.40;;
69534;SDS011;56754;51.568;5.048;2023-11-19T12:40:24;17.87;;;2.87;;
69534;SDS011;56754;51.568;5.048;2023-11-19T12:42:51;16.13;;;2.27;;
69534;SDS011;56754;51.568;5.048;2023-11-19T12:45:17;18.45;;;2.70;;
69534;SDS011;56754;51.568;5.048;2023-11-19T12:47:43;16.87;;;2.63;;
69534;SDS011;56754;51.568;5.048;2023-11-19T12:50:09;11.48;;;2.38;;
69534;SDS011;56754;51.568;5.048;2023-11-19T12:52:35;14.95;;;2.53;;
69534;SDS011;56754;51.568;5.048;2023-11-19T12:55:02;12.73;;;2.05;;
69534;SDS011;56754;51.568;5.048;2023-11-19T12:57:40;12.85;;;2.58;;
69534;SDS011;56754;51.568;5.048;2023-11-19T13:00:07;16.70;;;2.77;;
69534;SDS011;56754;51.568;5.048;2023-11-19T13:02:46;17.40;;;2.58;;
69534;SDS011;56754;51.568;5.048;2023-11-19T13:05:32;18.23;;;2.30;;
69534;SDS011;56754;51.568;5.048;2023-11-19T13:10:26;13.68;;;2.25;;
69534;SDS011;56754;51.568;5.048;2023-11-19T13:13:05;12.70;;;2.00;;
69534;SDS011;56754;51.568;5.048;2023-11-19T13:15:32;14.60;;;2.13;;
69534;SDS011;56754;51.568;5.048;2023-11-19T13:18:04;13.27;;;1.70;;
69534;SDS011;56754;51.568;5.048;2023-11-19T13:20:30;15.43;;;2.17;;
69534;SDS011;56754;51.568;5.048;2023-11-19T13:22:58;14.80;;;2.47;;
69534;SDS011;56754;51.568;5.048;2023-11-19T13:25:25;17.55;;;2.13;;
69534;SDS011;56754;51.568;5.048;2023-11-19T13:27:55;18.55;;;2.10;;
69534;SDS011;56754;51.568;5.048;2023-11-19T13:30:21;16.43;;;2.13;;
69534;SDS011;56754;51.568;5.048;2023-11-19T13:32:47;13.25;;;2.17;;
69534;SDS011;56754;51.568;5.048;2023-11-19T13:35:13;12.48;;;1.90;;
69534;SDS011;56754;51.568;5.048;2023-11-19T13:37:39;15.10;;;2.27;;
69534;SDS011;56754;51.568;5.048;2023-11-19T13:40:06;12.95;;;2.00;;
69534;SDS011;56754;51.568;5.048;2023-11-19T13:42:32;11.95;;;2.17;;
69534;SDS011;56754;51.568;5.048;2023-11-19T13:44:57;14.80;;;1.90;;
69534;SDS011;56754;51.568;5.048;2023-11-19T13:47:22;13.63;;;2.37;;
69534;SDS011;56754;51.568;5.048;2023-11-19T13:49:48;13.67;;;2.00;;
69534;SDS011;56754;51.568;5.048;2023-11-19T13:52:13;13.33;;;1.90;;
69534;SDS011;56754;51.568;5.048;2023-11-19T13:54:38;15.03;;;2.20;;
69534;SDS011;56754;51.568;5.048;2023-11-19T13:57:03;14.53;;;2.03;;
69534;SDS011;56754;51.568;5.048;2023-11-19T13:59:29;13.97;;;2.17;;
69534;SDS011;56754;51.568;5.048;2023-11-19T14:01:55;13.82;;;2.28;;
69534;SDS011;56754;51.568;5.048;2023-11-19T14:04:21;12.80;;;2.47;;
69534;SDS011;56754;51.568;5.048;2023-11-19T14:06:46;14.00;;;2.00;;
69534;SDS011;56754;51.568;5.048;2023-11-19T14:09:11;12.40;;;2.00;;
69534;SDS011;56754;51.568;5.048;2023-11-19T14:11:36;14.47;;;1.73;;
69534;SDS011;56754;51.568;5.048;2023-11-19T14:14:02;9.97;;;1.70;;
69534;SDS011;56754;51.568;5.048;2023-11-19T14:16:27;12.87;;;2.33;;
69534;SDS011;56754;51.568;5.048;2023-11-19T14:18:52;13.38;;;1.90;;
69534;SDS011;56754;51.568;5.048;2023-11-19T14:21:18;9.83;;;2.10;;
69534;SDS011;56754;51.568;5.048;2023-11-19T14:23:43;11.07;;;2.07;;
69534;SDS011;56754;51.568;5.048;2023-11-19T14:26:08;12.07;;;1.87;;
69534;SDS011;56754;51.568;5.048;2023-11-19T14:28:34;14.57;;;2.17;;
69534;SDS011;56754;51.568;5.048;2023-11-19T14:30:59;12.83;;;2.00;;
69534;SDS011;56754;51.568;5.048;2023-11-19T14:33:25;13.88;;;2.10;;
69534;SDS011;56754;51.568;5.048;2023-11-19T14:35:50;10.97;;;2.23;;
69534;SDS011;56754;51.568;5.048;2023-11-19T14:38:15;14.37;;;1.90;;
69534;SDS011;56754;51.568;5.048;2023-11-19T14:40:40;14.53;;;1.73;;
69534;SDS011;56754;51.568;5.048;2023-11-19T14:43:06;11.70;;;1.83;;
69534;SDS011;56754;51.568;5.048;2023-11-19T14:45:31;13.63;;;1.90;;
69534;SDS011;56754;51.568;5.048;2023-11-19T14:47:56;11.03;;;1.83;;
69534;SDS011;56754;51.568;5.048;2023-11-19T14:50:22;12.00;;;1.63;;